< < Back
Terminal Aerodrome Forecast


Current Version              Previous Versions:   1  2  3  4  5  6  7  8  9  

Terminal Aerodrome Forecast

355
FTUS42 KCAE 302335
TAFCAE
TAF
KCAE 302335Z 0100/0124 20008KT P6SM SCT035 BKN120
     FM010300 22005KT P6SM SCT120
     FM011600 26010G16KT P6SM SCT120=

Latest METAR

203
SAUS80 KWBC 010400 CCC
MTRCAE
METAR KCAE 010356Z 23003KT 9SM SCT200 22/21 A2997 RMK AO2 SLP144
T02220206


USA.gov is the U.S. government's official web portal to all federal, state and local government web resources and services.